Weems, Virginia
Current Conditions -  °F | °C
As of 4:15 AM on Friday 19 Dec 2014 (Local Time) from KW75 Reporting Station
Overcast Overcast  
Wind Chill: -2°   Ceiling: 12000
Heat Index:   Visibility: 10mi
Dew Point: -4°   Wind: 9mph
Humidity: 64%   Direction: 340°NNW
Pressure: 30.1"   Gusts: NA
Location:  37.65°N, 76.44°W
Report Text: KW75 190915Z AUTO 34008KT 10SM OVC120 02/M04 A3010 RMK AO1 T00171044
Loading
Personal Weather Stations






























Interactive Weather Map New forecast layout! Learn more

10-Day Weather Forecast

Advertisements
Track Severe Weather on mobile